sensor_id;sensor_type;location;lat;lon;timestamp;P1;durP1;ratioP1;P2;durP2;ratioP2
69629;SDS011;56857;52.212;5.496;2023-10-31T00:00:17;5.30;;;1.77;;
69629;SDS011;56857;52.212;5.496;2023-10-31T00:02:42;5.53;;;1.50;;
69629;SDS011;56857;52.212;5.496;2023-10-31T00:05:08;4.55;;;1.63;;
69629;SDS011;56857;52.212;5.496;2023-10-31T00:07:33;3.90;;;1.50;;
69629;SDS011;56857;52.212;5.496;2023-10-31T00:09:58;6.40;;;1.80;;
69629;SDS011;56857;52.212;5.496;2023-10-31T00:12:24;4.60;;;1.40;;
69629;SDS011;56857;52.212;5.496;2023-10-31T00:14:49;7.33;;;1.60;;
69629;SDS011;56857;52.212;5.496;2023-10-31T00:17:14;3.47;;;1.52;;
69629;SDS011;56857;52.212;5.496;2023-10-31T00:19:40;5.22;;;1.50;;
69629;SDS011;56857;52.212;5.496;2023-10-31T00:22:05;4.85;;;1.50;;
69629;SDS011;56857;52.212;5.496;2023-10-31T00:24:30;3.97;;;1.53;;
69629;SDS011;56857;52.212;5.496;2023-10-31T00:26:56;5.90;;;1.60;;
69629;SDS011;56857;52.212;5.496;2023-10-31T00:29:21;3.63;;;1.37;;
69629;SDS011;56857;52.212;5.496;2023-10-31T00:31:46;5.97;;;1.63;;
69629;SDS011;56857;52.212;5.496;2023-10-31T00:34:12;5.55;;;1.50;;
69629;SDS011;56857;52.212;5.496;2023-10-31T00:36:38;5.70;;;1.30;;
69629;SDS011;56857;52.212;5.496;2023-10-31T00:39:03;3.40;;;1.30;;
69629;SDS011;56857;52.212;5.496;2023-10-31T00:41:28;3.35;;;1.30;;
69629;SDS011;56857;52.212;5.496;2023-10-31T00:43:53;4.63;;;1.40;;
69629;SDS011;56857;52.212;5.496;2023-10-31T00:46:19;6.97;;;1.45;;
69629;SDS011;56857;52.212;5.496;2023-10-31T00:48:44;6.60;;;1.40;;
69629;SDS011;56857;52.212;5.496;2023-10-31T00:51:09;3.97;;;1.70;;
69629;SDS011;56857;52.212;5.496;2023-10-31T00:53:35;3.92;;;1.40;;
69629;SDS011;56857;52.212;5.496;2023-10-31T00:56:01;6.40;;;1.60;;
69629;SDS011;56857;52.212;5.496;2023-10-31T00:58:26;6.05;;;1.77;;
69629;SDS011;56857;52.212;5.496;2023-10-31T01:00:52;4.93;;;2.20;;
69629;SDS011;56857;52.212;5.496;2023-10-31T01:03:17;9.38;;;2.78;;
69629;SDS011;56857;52.212;5.496;2023-10-31T01:05:42;8.70;;;4.10;;
69629;SDS011;56857;52.212;5.496;2023-10-31T01:08:07;7.72;;;3.83;;
69629;SDS011;56857;52.212;5.496;2023-10-31T01:10:33;10.23;;;4.22;;
69629;SDS011;56857;52.212;5.496;2023-10-31T01:12:58;10.52;;;4.65;;
69629;SDS011;56857;52.212;5.496;2023-10-31T01:15:23;12.57;;;5.40;;
69629;SDS011;56857;52.212;5.496;2023-10-31T01:17:49;12.18;;;6.38;;
69629;SDS011;56857;52.212;5.496;2023-10-31T01:20:14;11.25;;;6.18;;
69629;SDS011;56857;52.212;5.496;2023-10-31T01:22:39;14.05;;;6.57;;
69629;SDS011;56857;52.212;5.496;2023-10-31T01:25:05;13.45;;;6.53;;
69629;SDS011;56857;52.212;5.496;2023-10-31T01:27:31;13.32;;;6.57;;
69629;SDS011;56857;52.212;5.496;2023-10-31T01:29:56;13.05;;;6.38;;
69629;SDS011;56857;52.212;5.496;2023-10-31T01:32:21;11.50;;;6.32;;
69629;SDS011;56857;52.212;5.496;2023-10-31T01:34:46;14.55;;;6.70;;
69629;SDS011;56857;52.212;5.496;2023-10-31T01:37:12;15.07;;;7.65;;
69629;SDS011;56857;52.212;5.496;2023-10-31T01:39:37;13.87;;;7.50;;
69629;SDS011;56857;52.212;5.496;2023-10-31T01:42:02;26.55;;;8.73;;
69629;SDS011;56857;52.212;5.496;2023-10-31T01:44:28;16.55;;;8.70;;
69629;SDS011;56857;52.212;5.496;2023-10-31T01:46:55;16.88;;;8.98;;
69629;SDS011;56857;52.212;5.496;2023-10-31T01:49:20;15.48;;;8.18;;
69629;SDS011;56857;52.212;5.496;2023-10-31T01:51:46;15.93;;;7.22;;
69629;SDS011;56857;52.212;5.496;2023-10-31T01:54:12;13.20;;;6.50;;
69629;SDS011;56857;52.212;5.496;2023-10-31T01:56:39;12.68;;;6.50;;
69629;SDS011;56857;52.212;5.496;2023-10-31T01:59:05;12.90;;;4.70;;
69629;SDS011;56857;52.212;5.496;2023-10-31T02:01:31;10.60;;;4.32;;
69629;SDS011;56857;52.212;5.496;2023-10-31T02:03:57;6.97;;;3.30;;
69629;SDS011;56857;52.212;5.496;2023-10-31T02:06:23;6.68;;;2.50;;
69629;SDS011;56857;52.212;5.496;2023-10-31T02:08:48;5.82;;;2.00;;
69629;SDS011;56857;52.212;5.496;2023-10-31T02:11:13;5.07;;;1.80;;
69629;SDS011;56857;52.212;5.496;2023-10-31T02:13:39;2.88;;;1.63;;
69629;SDS011;56857;52.212;5.496;2023-10-31T02:16:04;4.50;;;1.95;;
69629;SDS011;56857;52.212;5.496;2023-10-31T02:18:30;6.07;;;2.70;;
69629;SDS011;56857;52.212;5.496;2023-10-31T02:20:55;6.68;;;3.10;;
69629;SDS011;56857;52.212;5.496;2023-10-31T02:23:21;8.02;;;4.10;;
69629;SDS011;56857;52.212;5.496;2023-10-31T02:25:46;9.47;;;4.27;;
69629;SDS011;56857;52.212;5.496;2023-10-31T02:28:11;10.20;;;4.03;;
69629;SDS011;56857;52.212;5.496;2023-10-31T02:30:37;8.07;;;3.80;;
69629;SDS011;56857;52.212;5.496;2023-10-31T02:33:02;8.05;;;2.88;;
69629;SDS011;56857;52.212;5.496;2023-10-31T02:35:27;9.27;;;2.92;;
69629;SDS011;56857;52.212;5.496;2023-10-31T02:37:53;6.80;;;2.47;;
69629;SDS011;56857;52.212;5.496;2023-10-31T02:40:18;5.40;;;2.47;;
69629;SDS011;56857;52.212;5.496;2023-10-31T02:42:44;8.73;;;3.80;;
69629;SDS011;56857;52.212;5.496;2023-10-31T02:45:09;8.73;;;3.92;;
69629;SDS011;56857;52.212;5.496;2023-10-31T02:47:35;10.20;;;4.53;;
69629;SDS011;56857;52.212;5.496;2023-10-31T02:50:00;10.20;;;5.07;;
69629;SDS011;56857;52.212;5.496;2023-10-31T02:52:26;10.88;;;5.82;;
69629;SDS011;56857;52.212;5.496;2023-10-31T02:54:51;11.80;;;6.80;;
69629;SDS011;56857;52.212;5.496;2023-10-31T02:57:16;11.13;;;6.45;;
69629;SDS011;56857;52.212;5.496;2023-10-31T02:59:42;11.48;;;6.85;;
69629;SDS011;56857;52.212;5.496;2023-10-31T03:02:07;13.50;;;7.13;;
69629;SDS011;56857;52.212;5.496;2023-10-31T03:04:33;13.00;;;8.80;;
69629;SDS011;56857;52.212;5.496;2023-10-31T03:06:58;15.07;;;8.55;;
69629;SDS011;56857;52.212;5.496;2023-10-31T03:09:23;13.97;;;8.33;;
69629;SDS011;56857;52.212;5.496;2023-10-31T03:11:49;14.63;;;8.80;;
69629;SDS011;56857;52.212;5.496;2023-10-31T03:14:14;15.65;;;8.38;;
69629;SDS011;56857;52.212;5.496;2023-10-31T03:16:39;13.93;;;7.97;;
69629;SDS011;56857;52.212;5.496;2023-10-31T03:19:05;13.40;;;8.37;;
69629;SDS011;56857;52.212;5.496;2023-10-31T03:21:30;12.50;;;7.05;;
69629;SDS011;56857;52.212;5.496;2023-10-31T03:23:56;13.30;;;7.55;;
69629;SDS011;56857;52.212;5.496;2023-10-31T03:26:22;15.23;;;7.88;;
69629;SDS011;56857;52.212;5.496;2023-10-31T03:28:47;13.90;;;8.00;;
69629;SDS011;56857;52.212;5.496;2023-10-31T03:31:13;17.48;;;7.68;;
69629;SDS011;56857;52.212;5.496;2023-10-31T03:33:39;12.75;;;7.00;;
69629;SDS011;56857;52.212;5.496;2023-10-31T03:36:04;11.95;;;6.40;;
69629;SDS011;56857;52.212;5.496;2023-10-31T03:38:30;11.32;;;6.38;;
69629;SDS011;56857;52.212;5.496;2023-10-31T03:40:56;10.82;;;5.30;;
69629;SDS011;56857;52.212;5.496;2023-10-31T03:43:22;11.80;;;5.38;;
69629;SDS011;56857;52.212;5.496;2023-10-31T03:45:47;13.02;;;4.80;;
69629;SDS011;56857;52.212;5.496;2023-10-31T03:48:12;9.33;;;4.60;;
69629;SDS011;56857;52.212;5.496;2023-10-31T03:50:37;11.63;;;4.43;;
69629;SDS011;56857;52.212;5.496;2023-10-31T03:53:03;9.27;;;4.43;;
69629;SDS011;56857;52.212;5.496;2023-10-31T03:55:28;8.55;;;3.15;;
69629;SDS011;56857;52.212;5.496;2023-10-31T03:57:53;7.20;;;2.92;;
69629;SDS011;56857;52.212;5.496;2023-10-31T04:00:19;5.82;;;2.47;;
69629;SDS011;56857;52.212;5.496;2023-10-31T04:02:44;8.85;;;2.90;;
69629;SDS011;56857;52.212;5.496;2023-10-31T04:05:09;3.95;;;1.92;;
69629;SDS011;56857;52.212;5.496;2023-10-31T04:07:35;6.05;;;1.98;;
69629;SDS011;56857;52.212;5.496;2023-10-31T04:10:00;5.40;;;1.88;;
69629;SDS011;56857;52.212;5.496;2023-10-31T04:12:25;3.40;;;1.25;;
69629;SDS011;56857;52.212;5.496;2023-10-31T04:14:51;4.28;;;1.67;;
69629;SDS011;56857;52.212;5.496;2023-10-31T04:17:16;3.67;;;1.60;;
69629;SDS011;56857;52.212;5.496;2023-10-31T04:19:41;7.13;;;2.38;;
69629;SDS011;56857;52.212;5.496;2023-10-31T04:22:06;7.05;;;2.00;;
69629;SDS011;56857;52.212;5.496;2023-10-31T04:24:32;6.95;;;1.77;;
69629;SDS011;56857;52.212;5.496;2023-10-31T04:26:57;3.90;;;1.90;;
69629;SDS011;56857;52.212;5.496;2023-10-31T04:29:22;7.28;;;2.00;;
69629;SDS011;56857;52.212;5.496;2023-10-31T04:31:48;5.07;;;1.80;;
69629;SDS011;56857;52.212;5.496;2023-10-31T04:34:13;4.80;;;1.50;;
69629;SDS011;56857;52.212;5.496;2023-10-31T04:36:38;7.00;;;1.77;;
69629;SDS011;56857;52.212;5.496;2023-10-31T04:39:04;7.13;;;1.55;;
69629;SDS011;56857;52.212;5.496;2023-10-31T04:41:30;4.22;;;1.80;;
69629;SDS011;56857;52.212;5.496;2023-10-31T04:43:55;3.78;;;1.60;;
69629;SDS011;56857;52.212;5.496;2023-10-31T04:46:20;7.22;;;2.55;;
69629;SDS011;56857;52.212;5.496;2023-10-31T04:48:45;3.22;;;1.38;;
69629;SDS011;56857;52.212;5.496;2023-10-31T04:51:11;5.40;;;1.53;;
69629;SDS011;56857;52.212;5.496;2023-10-31T04:53:36;2.50;;;1.08;;
69629;SDS011;56857;52.212;5.496;2023-10-31T04:56:01;3.92;;;1.13;;
69629;SDS011;56857;52.212;5.496;2023-10-31T04:58:27;3.03;;;1.20;;
69629;SDS011;56857;52.212;5.496;2023-10-31T05:00:52;5.20;;;1.30;;
69629;SDS011;56857;52.212;5.496;2023-10-31T05:03:17;4.30;;;1.65;;
69629;SDS011;56857;52.212;5.496;2023-10-31T05:05:43;1.25;;;1.15;;
69629;SDS011;56857;52.212;5.496;2023-10-31T05:08:08;4.03;;;1.20;;
69629;SDS011;56857;52.212;5.496;2023-10-31T05:10:33;3.40;;;0.98;;
69629;SDS011;56857;52.212;5.496;2023-10-31T05:13:00;2.80;;;1.23;;
69629;SDS011;56857;52.212;5.496;2023-10-31T05:15:26;4.40;;;1.00;;
69629;SDS011;56857;52.212;5.496;2023-10-31T05:17:51;3.73;;;1.20;;
69629;SDS011;56857;52.212;5.496;2023-10-31T05:20:16;1.73;;;0.90;;
69629;SDS011;56857;52.212;5.496;2023-10-31T05:22:42;1.77;;;1.20;;
69629;SDS011;56857;52.212;5.496;2023-10-31T05:25:07;2.05;;;1.15;;
69629;SDS011;56857;52.212;5.496;2023-10-31T05:27:32;3.42;;;1.00;;
69629;SDS011;56857;52.212;5.496;2023-10-31T05:29:58;3.53;;;1.27;;
69629;SDS011;56857;52.212;5.496;2023-10-31T05:32:23;3.83;;;1.23;;
69629;SDS011;56857;52.212;5.496;2023-10-31T05:34:48;2.95;;;0.85;;
69629;SDS011;56857;52.212;5.496;2023-10-31T05:37:14;1.60;;;1.00;;
69629;SDS011;56857;52.212;5.496;2023-10-31T05:39:39;1.30;;;1.10;;
69629;SDS011;56857;52.212;5.496;2023-10-31T05:42:04;10.30;;;1.40;;
69629;SDS011;56857;52.212;5.496;2023-10-31T05:44:30;4.30;;;1.80;;
69629;SDS011;56857;52.212;5.496;2023-10-31T05:46:55;2.15;;;1.23;;
69629;SDS011;56857;52.212;5.496;2023-10-31T05:49:20;2.97;;;1.40;;
69629;SDS011;56857;52.212;5.496;2023-10-31T05:51:52;3.22;;;1.42;;
69629;SDS011;56857;52.212;5.496;2023-10-31T05:54:18;5.32;;;1.88;;
69629;SDS011;56857;52.212;5.496;2023-10-31T05:56:43;5.80;;;1.88;;
69629;SDS011;56857;52.212;5.496;2023-10-31T05:59:08;5.10;;;1.70;;
69629;SDS011;56857;52.212;5.496;2023-10-31T06:01:34;4.57;;;2.17;;
69629;SDS011;56857;52.212;5.496;2023-10-31T06:03:59;4.43;;;1.98;;
69629;SDS011;56857;52.212;5.496;2023-10-31T06:06:24;4.57;;;2.23;;
69629;SDS011;56857;52.212;5.496;2023-10-31T06:08:49;8.35;;;2.42;;
69629;SDS011;56857;52.212;5.496;2023-10-31T06:11:15;4.50;;;2.30;;
69629;SDS011;56857;52.212;5.496;2023-10-31T06:13:40;3.55;;;1.70;;
69629;SDS011;56857;52.212;5.496;2023-10-31T06:16:05;7.90;;;2.03;;
69629;SDS011;56857;52.212;5.496;2023-10-31T06:18:31;4.38;;;1.67;;
69629;SDS011;56857;52.212;5.496;2023-10-31T06:20:56;4.37;;;1.50;;
69629;SDS011;56857;52.212;5.496;2023-10-31T06:23:21;2.37;;;1.10;;
69629;SDS011;56857;52.212;5.496;2023-10-31T06:25:47;4.13;;;1.93;;
69629;SDS011;56857;52.212;5.496;2023-10-31T06:28:12;4.17;;;1.83;;
69629;SDS011;56857;52.212;5.496;2023-10-31T06:30:37;4.85;;;1.90;;
69629;SDS011;56857;52.212;5.496;2023-10-31T06:33:02;4.85;;;2.47;;
69629;SDS011;56857;52.212;5.496;2023-10-31T06:35:28;8.37;;;1.90;;
69629;SDS011;56857;52.212;5.496;2023-10-31T06:37:54;6.53;;;2.60;;
69629;SDS011;56857;52.212;5.496;2023-10-31T06:40:20;5.57;;;2.55;;
69629;SDS011;56857;52.212;5.496;2023-10-31T06:42:46;5.40;;;2.42;;
69629;SDS011;56857;52.212;5.496;2023-10-31T06:45:11;5.20;;;1.93;;
69629;SDS011;56857;52.212;5.496;2023-10-31T06:47:36;7.47;;;3.22;;
69629;SDS011;56857;52.212;5.496;2023-10-31T06:50:02;6.20;;;2.50;;
69629;SDS011;56857;52.212;5.496;2023-10-31T06:52:27;7.55;;;2.97;;
69629;SDS011;56857;52.212;5.496;2023-10-31T06:54:52;19.75;;;3.92;;
69629;SDS011;56857;52.212;5.496;2023-10-31T06:57:18;6.82;;;3.05;;
69629;SDS011;56857;52.212;5.496;2023-10-31T06:59:43;8.17;;;3.40;;
69629;SDS011;56857;52.212;5.496;2023-10-31T07:02:08;10.07;;;3.87;;
69629;SDS011;56857;52.212;5.496;2023-10-31T07:04:34;10.95;;;3.92;;
69629;SDS011;56857;52.212;5.496;2023-10-31T07:06:59;7.07;;;3.20;;
69629;SDS011;56857;52.212;5.496;2023-10-31T07:09:25;8.03;;;2.90;;
69629;SDS011;56857;52.212;5.496;2023-10-31T07:11:51;8.00;;;3.88;;
69629;SDS011;56857;52.212;5.496;2023-10-31T07:14:16;7.05;;;3.40;;
69629;SDS011;56857;52.212;5.496;2023-10-31T07:16:42;6.70;;;3.03;;
69629;SDS011;56857;52.212;5.496;2023-10-31T07:19:07;7.40;;;3.30;;
69629;SDS011;56857;52.212;5.496;2023-10-31T07:21:32;8.18;;;3.33;;
69629;SDS011;56857;52.212;5.496;2023-10-31T07:23:58;9.18;;;3.83;;
69629;SDS011;56857;52.212;5.496;2023-10-31T07:26:23;8.82;;;3.00;;
69629;SDS011;56857;52.212;5.496;2023-10-31T07:28:48;8.88;;;2.95;;
69629;SDS011;56857;52.212;5.496;2023-10-31T07:31:14;6.43;;;2.92;;
69629;SDS011;56857;52.212;5.496;2023-10-31T07:33:39;5.68;;;2.45;;
69629;SDS011;56857;52.212;5.496;2023-10-31T07:36:05;8.30;;;2.58;;
69629;SDS011;56857;52.212;5.496;2023-10-31T07:38:30;6.18;;;2.65;;
69629;SDS011;56857;52.212;5.496;2023-10-31T07:40:56;5.72;;;2.58;;
69629;SDS011;56857;52.212;5.496;2023-10-31T07:43:21;7.40;;;2.35;;
69629;SDS011;56857;52.212;5.496;2023-10-31T07:45:46;6.97;;;2.88;;
69629;SDS011;56857;52.212;5.496;2023-10-31T07:48:12;6.72;;;2.25;;
69629;SDS011;56857;52.212;5.496;2023-10-31T07:50:37;5.10;;;2.25;;
69629;SDS011;56857;52.212;5.496;2023-10-31T07:53:03;7.32;;;2.30;;
69629;SDS011;56857;52.212;5.496;2023-10-31T07:55:28;7.13;;;2.22;;
69629;SDS011;56857;52.212;5.496;2023-10-31T07:57:53;4.70;;;1.88;;
69629;SDS011;56857;52.212;5.496;2023-10-31T08:00:19;4.70;;;1.85;;
69629;SDS011;56857;52.212;5.496;2023-10-31T08:02:44;5.25;;;1.98;;
69629;SDS011;56857;52.212;5.496;2023-10-31T08:05:09;4.75;;;1.80;;
69629;SDS011;56857;52.212;5.496;2023-10-31T08:07:35;5.63;;;1.92;;
69629;SDS011;56857;52.212;5.496;2023-10-31T08:10:01;5.72;;;1.83;;
69629;SDS011;56857;52.212;5.496;2023-10-31T08:12:27;5.22;;;1.83;;
69629;SDS011;56857;52.212;5.496;2023-10-31T08:14:52;4.88;;;1.70;;
69629;SDS011;56857;52.212;5.496;2023-10-31T08:17:17;6.88;;;2.08;;
69629;SDS011;56857;52.212;5.496;2023-10-31T08:19:42;6.57;;;2.20;;
69629;SDS011;56857;52.212;5.496;2023-10-31T08:22:08;6.18;;;1.92;;
69629;SDS011;56857;52.212;5.496;2023-10-31T08:24:33;6.03;;;2.10;;
69629;SDS011;56857;52.212;5.496;2023-10-31T08:26:59;5.82;;;1.83;;
69629;SDS011;56857;52.212;5.496;2023-10-31T08:29:24;5.68;;;1.98;;
69629;SDS011;56857;52.212;5.496;2023-10-31T08:31:49;7.45;;;2.45;;
69629;SDS011;56857;52.212;5.496;2023-10-31T08:34:15;5.57;;;1.95;;
69629;SDS011;56857;52.212;5.496;2023-10-31T08:36:40;5.53;;;2.30;;
69629;SDS011;56857;52.212;5.496;2023-10-31T08:39:05;6.38;;;2.38;;
69629;SDS011;56857;52.212;5.496;2023-10-31T08:41:31;5.55;;;2.03;;
69629;SDS011;56857;52.212;5.496;2023-10-31T08:43:56;10.25;;;2.40;;
69629;SDS011;56857;52.212;5.496;2023-10-31T08:46:21;5.25;;;2.15;;
69629;SDS011;56857;52.212;5.496;2023-10-31T08:48:47;6.00;;;2.20;;
69629;SDS011;56857;52.212;5.496;2023-10-31T08:51:12;8.57;;;2.35;;
69629;SDS011;56857;52.212;5.496;2023-10-31T08:53:37;5.72;;;2.47;;
69629;SDS011;56857;52.212;5.496;2023-10-31T08:56:03;8.27;;;2.85;;
69629;SDS011;56857;52.212;5.496;2023-10-31T08:58:28;5.88;;;2.25;;
69629;SDS011;56857;52.212;5.496;2023-10-31T09:00:54;5.70;;;2.20;;
69629;SDS011;56857;52.212;5.496;2023-10-31T09:03:19;7.13;;;2.55;;
69629;SDS011;56857;52.212;5.496;2023-10-31T09:05:44;11.75;;;3.35;;
69629;SDS011;56857;52.212;5.496;2023-10-31T09:08:10;10.07;;;2.40;;
69629;SDS011;56857;52.212;5.496;2023-10-31T09:10:36;8.80;;;2.10;;
69629;SDS011;56857;52.212;5.496;2023-10-31T09:13:01;7.40;;;2.47;;
69629;SDS011;56857;52.212;5.496;2023-10-31T09:15:27;7.50;;;1.97;;
69629;SDS011;56857;52.212;5.496;2023-10-31T09:17:52;6.17;;;2.20;;
69629;SDS011;56857;52.212;5.496;2023-10-31T09:20:17;5.75;;;2.00;;
69629;SDS011;56857;52.212;5.496;2023-10-31T09:22:43;6.20;;;2.00;;
69629;SDS011;56857;52.212;5.496;2023-10-31T09:25:08;8.80;;;2.10;;
69629;SDS011;56857;52.212;5.496;2023-10-31T09:27:33;5.73;;;2.23;;
69629;SDS011;56857;52.212;5.496;2023-10-31T09:29:58;7.00;;;1.83;;
69629;SDS011;56857;52.212;5.496;2023-10-31T09:32:24;8.07;;;2.20;;
69629;SDS011;56857;52.212;5.496;2023-10-31T09:34:49;7.77;;;2.20;;
69629;SDS011;56857;52.212;5.496;2023-10-31T09:37:14;7.37;;;2.10;;
69629;SDS011;56857;52.212;5.496;2023-10-31T09:39:40;7.03;;;1.95;;
69629;SDS011;56857;52.212;5.496;2023-10-31T09:42:05;5.83;;;2.20;;
69629;SDS011;56857;52.212;5.496;2023-10-31T09:44:30;6.68;;;2.03;;
69629;SDS011;56857;52.212;5.496;2023-10-31T09:46:56;7.67;;;2.20;;
69629;SDS011;56857;52.212;5.496;2023-10-31T09:49:22;7.35;;;1.98;;
69629;SDS011;56857;52.212;5.496;2023-10-31T09:51:48;6.20;;;1.98;;
69629;SDS011;56857;52.212;5.496;2023-10-31T09:54:13;7.57;;;1.95;;
69629;SDS011;56857;52.212;5.496;2023-10-31T09:56:41;5.40;;;1.77;;
69629;SDS011;56857;52.212;5.496;2023-10-31T09:59:06;7.95;;;2.30;;
69629;SDS011;56857;52.212;5.496;2023-10-31T10:01:32;7.93;;;2.28;;
69629;SDS011;56857;52.212;5.496;2023-10-31T10:03:57;7.78;;;2.30;;
69629;SDS011;56857;52.212;5.496;2023-10-31T10:06:23;7.68;;;2.38;;
69629;SDS011;56857;52.212;5.496;2023-10-31T10:08:48;10.45;;;2.30;;
69629;SDS011;56857;52.212;5.496;2023-10-31T10:11:14;7.05;;;2.08;;
69629;SDS011;56857;52.212;5.496;2023-10-31T10:13:39;7.95;;;2.63;;
69629;SDS011;56857;52.212;5.496;2023-10-31T10:16:05;7.82;;;2.80;;
69629;SDS011;56857;52.212;5.496;2023-10-31T10:18:31;9.73;;;2.33;;
69629;SDS011;56857;52.212;5.496;2023-10-31T10:20:59;10.52;;;2.50;;
69629;SDS011;56857;52.212;5.496;2023-10-31T10:23:25;10.80;;;2.75;;
69629;SDS011;56857;52.212;5.496;2023-10-31T10:25:52;6.47;;;2.58;;
69629;SDS011;56857;52.212;5.496;2023-10-31T10:28:20;6.65;;;2.60;;
69629;SDS011;56857;52.212;5.496;2023-10-31T10:30:46;6.33;;;2.63;;
69629;SDS011;56857;52.212;5.496;2023-10-31T10:33:12;8.25;;;2.38;;
69629;SDS011;56857;52.212;5.496;2023-10-31T10:35:37;7.40;;;2.35;;
69629;SDS011;56857;52.212;5.496;2023-10-31T10:38:02;7.60;;;2.70;;
69629;SDS011;56857;52.212;5.496;2023-10-31T10:40:36;6.55;;;2.50;;
69629;SDS011;56857;52.212;5.496;2023-10-31T10:43:02;8.02;;;2.45;;
69629;SDS011;56857;52.212;5.496;2023-10-31T10:45:31;5.70;;;2.33;;
69629;SDS011;56857;52.212;5.496;2023-10-31T10:47:56;11.02;;;2.30;;
69629;SDS011;56857;52.212;5.496;2023-10-31T10:50:24;9.15;;;2.78;;
69629;SDS011;56857;52.212;5.496;2023-10-31T10:53:35;10.93;;;3.47;;
69629;SDS011;56857;52.212;5.496;2023-10-31T10:55:50;8.20;;;2.80;;
69629;SDS011;56857;52.212;5.496;2023-10-31T10:58:33;10.07;;;3.17;;
69629;SDS011;56857;52.212;5.496;2023-10-31T11:01:02;10.40;;;2.10;;
69629;SDS011;56857;52.212;5.496;2023-10-31T11:03:29;9.48;;;2.85;;
69629;SDS011;56857;52.212;5.496;2023-10-31T11:05:55;11.05;;;2.72;;
69629;SDS011;56857;52.212;5.496;2023-10-31T11:08:21;6.95;;;2.35;;
69629;SDS011;56857;52.212;5.496;2023-10-31T11:10:48;9.20;;;2.72;;
69629;SDS011;56857;52.212;5.496;2023-10-31T11:13:15;5.80;;;2.47;;
69629;SDS011;56857;52.212;5.496;2023-10-31T11:15:40;6.35;;;2.28;;
69629;SDS011;56857;52.212;5.496;2023-10-31T11:18:08;5.65;;;1.98;;
69629;SDS011;56857;52.212;5.496;2023-10-31T11:20:34;9.15;;;1.90;;
69629;SDS011;56857;52.212;5.496;2023-10-31T11:23:01;7.45;;;1.40;;
69629;SDS011;56857;52.212;5.496;2023-10-31T11:25:27;5.75;;;1.95;;
69629;SDS011;56857;52.212;5.496;2023-10-31T11:27:52;4.93;;;1.73;;
69629;SDS011;56857;52.212;5.496;2023-10-31T11:32:52;4.00;;;1.48;;
69629;SDS011;56857;52.212;5.496;2023-10-31T11:35:17;5.18;;;1.58;;
69629;SDS011;56857;52.212;5.496;2023-10-31T11:37:43;5.68;;;1.85;;
69629;SDS011;56857;52.212;5.496;2023-10-31T11:40:22;4.15;;;1.60;;
69629;SDS011;56857;52.212;5.496;2023-10-31T11:42:48;5.35;;;1.52;;
69629;SDS011;56857;52.212;5.496;2023-10-31T11:48:04;3.42;;;1.10;;
69629;SDS011;56857;52.212;5.496;2023-10-31T11:50:30;2.58;;;0.90;;
69629;SDS011;56857;52.212;5.496;2023-10-31T11:55:24;2.50;;;1.00;;
69629;SDS011;56857;52.212;5.496;2023-10-31T11:57:50;4.10;;;1.17;;
69629;SDS011;56857;52.212;5.496;2023-10-31T12:00:22;2.78;;;1.20;;
69629;SDS011;56857;52.212;5.496;2023-10-31T12:02:58;2.50;;;1.00;;
69629;SDS011;56857;52.212;5.496;2023-10-31T12:05:24;3.00;;;1.10;;
69629;SDS011;56857;52.212;5.496;2023-10-31T12:07:50;2.73;;;1.20;;
69629;SDS011;56857;52.212;5.496;2023-10-31T12:10:21;4.55;;;1.30;;
69629;SDS011;56857;52.212;5.496;2023-10-31T12:12:50;3.97;;;1.10;;
69629;SDS011;56857;52.212;5.496;2023-10-31T12:15:16;1.40;;;0.90;;
69629;SDS011;56857;52.212;5.496;2023-10-31T12:17:41;6.00;;;1.30;;
69629;SDS011;56857;52.212;5.496;2023-10-31T12:20:07;5.22;;;1.45;;
69629;SDS011;56857;52.212;5.496;2023-10-31T12:22:34;5.95;;;1.60;;
69629;SDS011;56857;52.212;5.496;2023-10-31T12:25:00;7.28;;;1.55;;
69629;SDS011;56857;52.212;5.496;2023-10-31T12:27:41;3.88;;;1.20;;
69629;SDS011;56857;52.212;5.496;2023-10-31T12:30:20;9.27;;;1.50;;
69629;SDS011;56857;52.212;5.496;2023-10-31T12:32:53;4.78;;;1.30;;
69629;SDS011;56857;52.212;5.496;2023-10-31T12:35:20;5.45;;;2.03;;
69629;SDS011;56857;52.212;5.496;2023-10-31T12:37:47;5.03;;;2.08;;
69629;SDS011;56857;52.212;5.496;2023-10-31T12:40:14;5.80;;;1.30;;
69629;SDS011;56857;52.212;5.496;2023-10-31T12:42:44;4.40;;;1.40;;
69629;SDS011;56857;52.212;5.496;2023-10-31T12:45:14;4.60;;;1.25;;
69629;SDS011;56857;52.212;5.496;2023-10-31T12:47:40;5.47;;;1.33;;
69629;SDS011;56857;52.212;5.496;2023-10-31T12:52:50;3.33;;;1.40;;
69629;SDS011;56857;52.212;5.496;2023-10-31T12:55:18;3.80;;;1.30;;
69629;SDS011;56857;52.212;5.496;2023-10-31T12:57:46;4.32;;;1.25;;
69629;SDS011;56857;52.212;5.496;2023-10-31T13:00:12;3.53;;;1.25;;
69629;SDS011;56857;52.212;5.496;2023-10-31T13:02:42;5.55;;;1.40;;
69629;SDS011;56857;52.212;5.496;2023-10-31T13:05:10;5.43;;;1.55;;
69629;SDS011;56857;52.212;5.496;2023-10-31T13:07:38;4.28;;;1.55;;
69629;SDS011;56857;52.212;5.496;2023-10-31T13:10:04;4.07;;;1.48;;
69629;SDS011;56857;52.212;5.496;2023-10-31T13:12:30;4.22;;;1.90;;
69629;SDS011;56857;52.212;5.496;2023-10-31T13:14:56;6.43;;;1.58;;
69629;SDS011;56857;52.212;5.496;2023-10-31T13:17:21;5.75;;;1.55;;
69629;SDS011;56857;52.212;5.496;2023-10-31T13:19:46;13.20;;;5.13;;
69629;SDS011;56857;52.212;5.496;2023-10-31T13:22:12;11.82;;;5.45;;
69629;SDS011;56857;52.212;5.496;2023-10-31T13:24:37;10.40;;;5.03;;
69629;SDS011;56857;52.212;5.496;2023-10-31T13:27:02;18.30;;;10.40;;
69629;SDS011;56857;52.212;5.496;2023-10-31T13:29:28;23.08;;;12.18;;
69629;SDS011;56857;52.212;5.496;2023-10-31T13:31:53;24.48;;;13.15;;
69629;SDS011;56857;52.212;5.496;2023-10-31T13:34:19;25.05;;;13.88;;
69629;SDS011;56857;52.212;5.496;2023-10-31T13:36:44;23.88;;;13.07;;
69629;SDS011;56857;52.212;5.496;2023-10-31T13:39:09;25.83;;;13.45;;
69629;SDS011;56857;52.212;5.496;2023-10-31T13:41:35;27.45;;;14.00;;
69629;SDS011;56857;52.212;5.496;2023-10-31T13:44:00;26.67;;;14.02;;
69629;SDS011;56857;52.212;5.496;2023-10-31T13:46:25;25.00;;;14.33;;
69629;SDS011;56857;52.212;5.496;2023-10-31T13:48:51;27.77;;;15.70;;
69629;SDS011;56857;52.212;5.496;2023-10-31T13:51:16;26.55;;;15.02;;
69629;SDS011;56857;52.212;5.496;2023-10-31T13:53:41;34.43;;;15.47;;
69629;SDS011;56857;52.212;5.496;2023-10-31T13:56:07;31.27;;;15.50;;
69629;SDS011;56857;52.212;5.496;2023-10-31T13:58:32;33.30;;;15.43;;
69629;SDS011;56857;52.212;5.496;2023-10-31T14:00:58;29.27;;;14.38;;
69629;SDS011;56857;52.212;5.496;2023-10-31T14:03:23;31.38;;;16.27;;
69629;SDS011;56857;52.212;5.496;2023-10-31T14:05:48;28.95;;;15.98;;
69629;SDS011;56857;52.212;5.496;2023-10-31T14:08:13;31.67;;;16.60;;
69629;SDS011;56857;52.212;5.496;2023-10-31T14:10:39;33.05;;;15.77;;
69629;SDS011;56857;52.212;5.496;2023-10-31T14:13:04;25.75;;;14.63;;
69629;SDS011;56857;52.212;5.496;2023-10-31T14:15:29;29.55;;;16.30;;
69629;SDS011;56857;52.212;5.496;2023-10-31T14:17:55;30.40;;;14.90;;
69629;SDS011;56857;52.212;5.496;2023-10-31T14:20:20;24.98;;;13.57;;
69629;SDS011;56857;52.212;5.496;2023-10-31T14:22:48;22.13;;;13.50;;
69629;SDS011;56857;52.212;5.496;2023-10-31T14:25:14;22.65;;;12.82;;
69629;SDS011;56857;52.212;5.496;2023-10-31T14:27:39;26.20;;;13.23;;
69629;SDS011;56857;52.212;5.496;2023-10-31T14:30:05;26.37;;;12.73;;
69629;SDS011;56857;52.212;5.496;2023-10-31T14:32:31;21.00;;;12.65;;
69629;SDS011;56857;52.212;5.496;2023-10-31T14:34:56;22.43;;;11.93;;
69629;SDS011;56857;52.212;5.496;2023-10-31T14:37:21;22.57;;;11.87;;
69629;SDS011;56857;52.212;5.496;2023-10-31T14:39:46;21.05;;;11.82;;
69629;SDS011;56857;52.212;5.496;2023-10-31T14:42:12;23.00;;;11.98;;
69629;SDS011;56857;52.212;5.496;2023-10-31T14:44:37;20.00;;;12.75;;